Time;durP1;ratioP1;P1;durP2;ratioP2;P2;SDS_P1;SDS_P2;PMS_P1;PMS_P2;Temp;Humidity;BMP_temperature;BMP_pressure;BME280_temperature;BME280_humidity;BME280_pressure;Samples;Min_cycle;Max_cycle;Signal;HPM_P1;HPM_P2
2021/11/06 00:00:11;;;;;;;;;;;;;;;20.72;48.24;102632.00;7278684;19;152112;-49
2021/11/06 00:02:38;;;;;;;;;;;;;;;20.72;47.86;102624.41;7277391;19;155131;-49
2021/11/06 00:05:06;;;;;;;;;;;;;;;20.75;48.22;102618.28;7279013;19;151858;-49
2021/11/06 00:07:32;;;;;;;;;;;;;;;20.77;48.06;102618.84;7288085;19;153062;-50
2021/11/06 00:10:03;;;;;;;;;;;;;;;20.79;48.00;102616.63;7280121;19;152313;-49
2021/11/06 00:12:30;;;;;;;;;;;;;;;20.83;48.04;102619.72;7279058;19;154845;-50
2021/11/06 00:14:56;;;;;;;;;;;;;;;20.85;47.78;102614.66;7279677;19;154018;-50
2021/11/06 00:17:23;;;;;;;;;;;;;;;20.85;47.68;102609.91;7279137;19;151870;-49
2021/11/06 00:19:54;;;;;;;;;;;;;;;20.87;47.78;102609.66;7280446;19;153634;-49
2021/11/06 00:22:21;;;;;;;;;;;;;;;20.88;47.94;102610.50;7277325;19;154275;-49
2021/11/06 00:24:47;;;;;;;;;;;;;;;20.87;47.97;102604.03;7279128;19;151953;-49
2021/11/06 00:27:14;;;;;;;;;;;;;;;20.87;47.68;102612.47;7284236;19;154227;-49
2021/11/06 00:29:42;;;;;;;;;;;;;;;20.87;47.86;102609.66;7292824;19;153860;-49
2021/11/06 00:32:09;;;;;;;;;;;;;;;20.88;48.13;102610.50;7286310;19;153186;-49
2021/11/06 00:34:36;;;;;;;;;;;;;;;20.86;47.74;102608.78;7285265;19;155585;-49
2021/11/06 00:37:03;;;;;;;;;;;;;;;20.86;47.95;102605.13;7284930;19;151990;-49
2021/11/06 00:39:30;;;;;;;;;;;;;;;20.87;47.75;102609.66;7286927;19;152911;-49
2021/11/06 00:41:57;;;;;;;;;;;;;;;20.85;48.20;102598.66;7285399;19;153724;-49
2021/11/06 00:44:24;;;;;;;;;;;;;;;20.86;47.77;102605.97;7286426;19;151920;-49
2021/11/06 00:46:51;;;;;;;;;;;;;;;20.85;47.78;102606.25;7287229;19;152106;-49
2021/11/06 00:49:18;;;;;;;;;;;;;;;20.84;47.90;102604.56;7283309;19;154445;-49
2021/11/06 00:51:45;;;;;;;;;;;;;;;20.83;47.78;102600.91;7295623;19;152294;-49
2021/11/06 00:54:11;;;;;;;;;;;;;;;20.84;48.37;102604.56;7287796;19;153241;-50
2021/11/06 00:56:38;;;;;;;;;;;;;;;20.83;48.58;102597.25;7288134;19;151732;-49
2021/11/06 00:59:05;;;;;;;;;;;;;;;20.84;48.47;102601.78;7289050;19;153215;-49
2021/11/06 01:01:32;;;;;;;;;;;;;;;20.83;48.14;102600.91;7286992;19;152286;-49
2021/11/06 01:03:59;;;;;;;;;;;;;;;20.81;48.55;102605.94;7288725;19;151601;-50
2021/11/06 01:06:26;;;;;;;;;;;;;;;20.82;48.17;102589.94;7288477;19;153162;-50
2021/11/06 01:08:53;;;;;;;;;;;;;;;20.80;48.48;102598.63;7288867;19;153662;-50
2021/11/06 01:11:19;;;;;;;;;;;;;;;20.79;48.55;102591.34;7288788;19;152322;-49
2021/11/06 01:13:48;;;;;;;;;;;;;;;20.76;48.16;102594.66;7296397;19;152963;-49
2021/11/06 01:16:15;;;;;;;;;;;;;;;20.76;48.90;102589.06;7289259;19;151929;-50
2021/11/06 01:18:42;;;;;;;;;;;;;;;20.75;48.55;102584.56;7287172;19;153236;-49
2021/11/06 01:21:09;;;;;;;;;;;;;;;20.75;49.19;102580.91;7287512;19;154176;-50
2021/11/06 01:23:36;;;;;;;;;;;;;;;20.73;48.76;102575.56;7286026;19;151963;-49
2021/11/06 01:26:02;;;;;;;;;;;;;;;20.72;49.23;102581.44;7285779;19;152137;-50
2021/11/06 01:28:29;;;;;;;;;;;;;;;20.70;49.22;102578.91;7287096;19;152389;-49
2021/11/06 01:30:56;;;;;;;;;;;;;;;20.68;49.59;102574.66;7286353;19;152154;-49
2021/11/06 01:33:23;;;;;;;;;;;;;;;20.66;49.71;102574.97;7288598;19;152813;-49
2021/11/06 01:35:50;;;;;;;;;;;;;;;20.65;49.31;102587.31;7295405;19;151799;-50
2021/11/06 01:38:16;;;;;;;;;;;;;;;20.67;49.47;102584.22;7283443;19;154712;-49
2021/11/06 01:40:44;;;;;;;;;;;;;;;20.65;49.76;102578.88;7286173;19;153918;-49
2021/11/06 01:43:11;;;;;;;;;;;;;;;20.62;49.84;102581.38;7287699;19;152073;-50
2021/11/06 01:45:37;;;;;;;;;;;;;;;20.62;49.82;102587.84;7286238;19;153570;-50
2021/11/06 01:48:04;;;;;;;;;;;;;;;20.62;50.06;102575.78;7287419;19;154468;-49
2021/11/06 01:50:31;;;;;;;;;;;;;;;20.62;50.03;102572.97;7285004;19;152086;-50
2021/11/06 01:52:58;;;;;;;;;;;;;;;20.63;50.06;102571.81;7288585;19;153183;-49
2021/11/06 01:55:25;;;;;;;;;;;;;;;20.63;49.64;102569.00;7294195;19;155420;-49
2021/11/06 01:57:52;;;;;;;;;;;;;;;20.60;50.10;102567.59;7288241;19;152997;-49
2021/11/06 02:00:21;;;;;;;;;;;;;;;20.59;49.83;102571.53;7284632;19;153181;-49
2021/11/06 02:02:48;;;;;;;;;;;;;;;20.57;50.01;102567.31;7284631;19;151894;-49
2021/11/06 02:05:15;;;;;;;;;;;;;;;20.57;49.76;102570.97;7285388;19;152783;-50
2021/11/06 02:07:42;;;;;;;;;;;;;;;20.55;50.39;102567.56;7284885;19;153799;-50
2021/11/06 02:10:10;;;;;;;;;;;;;;;20.54;50.37;102576.25;7285960;19;151943;-50
2021/11/06 02:12:37;;;;;;;;;;;;;;;20.54;50.07;102570.63;7285531;19;153229;-50
2021/11/06 02:15:06;;;;;;;;;;;;;;;20.53;50.17;102580.19;7285431;19;153318;-50
2021/11/06 02:17:32;;;;;;;;;;;;;;;20.51;50.30;102580.44;7295453;19;151791;-50
2021/11/06 02:19:59;;;;;;;;;;;;;;;20.51;50.09;102572.03;7286015;19;154018;-50
2021/11/06 02:22:29;;;;;;;;;;;;;;;20.50;50.43;102567.50;7285059;19;152328;-49
2021/11/06 02:24:57;;;;;;;;;;;;;;;20.49;50.01;102568.63;7285762;19;152730;-50
2021/11/06 02:27:24;;;;;;;;;;;;;;;20.46;50.10;102568.31;7285940;19;153917;-49
2021/11/06 02:29:50;;;;;;;;;;;;;;;20.47;50.06;102564.41;7284309;19;151919;-49
2021/11/06 02:32:17;;;;;;;;;;;;;;;20.44;50.20;102563.00;7286070;19;153243;-49
2021/11/06 02:34:44;;;;;;;;;;;;;;;20.43;50.07;102566.91;7282454;19;153728;-49
2021/11/06 02:37:11;;;;;;;;;;;;;;;20.41;50.21;102561.56;7285289;19;152218;-49
2021/11/06 02:39:38;;;;;;;;;;;;;;;20.41;50.43;102571.94;7291754;19;153302;-49
2021/11/06 02:42:06;;;;;;;;;;;;;;;20.40;50.54;102564.63;7286022;19;152091;-50
2021/11/06 02:44:34;;;;;;;;;;;;;;;20.40;50.49;102559.84;7284358;19;153954;-49
2021/11/06 02:47:01;;;;;;;;;;;;;;;20.38;50.40;102558.44;7285565;19;154081;-49
2021/11/06 02:49:28;;;;;;;;;;;;;;;20.38;50.61;102562.09;7283247;19;152891;-50
2021/11/06 02:51:55;;;;;;;;;;;;;;;20.33;50.45;102552.78;7286708;19;153789;-49
2021/11/06 02:54:22;;;;;;;;;;;;;;;20.34;50.53;102551.69;7283962;19;154335;-50
2021/11/06 02:56:49;;;;;;;;;;;;;;;20.31;50.41;102552.19;7284837;19;151812;-49
2021/11/06 02:59:16;;;;;;;;;;;;;;;20.29;50.71;102543.19;7284565;19;152813;-49
2021/11/06 03:01:43;;;;;;;;;;;;;;;20.25;50.88;102547.63;7289615;19;153399;-49
2021/11/06 03:04:11;;;;;;;;;;;;;;;20.26;50.77;102541.72;7283342;19;153679;-50
2021/11/06 03:06:38;;;;;;;;;;;;;;;20.25;50.50;102540.06;7282842;19;153577;-49
2021/11/06 03:09:05;;;;;;;;;;;;;;;20.22;50.56;102548.16;7286430;19;151895;-50
2021/11/06 03:11:33;;;;;;;;;;;;;;;20.21;50.82;102543.69;7283320;19;152898;-50
2021/11/06 03:14:01;;;;;;;;;;;;;;;20.20;50.48;102541.97;7283632;19;153265;-50
2021/11/06 03:16:27;;;;;;;;;;;;;;;20.15;50.86;102533.50;7282750;19;152149;-50
2021/11/06 03:18:54;;;;;;;;;;;;;;;20.16;50.59;102541.66;7285669;19;153065;-49
2021/11/06 03:21:21;;;;;;;;;;;;;;;20.10;51.11;102528.69;7283752;19;153399;-50
2021/11/06 03:23:48;;;;;;;;;;;;;;;20.12;51.09;102529.28;7290992;19;151859;-50
2021/11/06 03:26:15;;;;;;;;;;;;;;;20.12;50.72;102529.28;7283080;19;154392;-50
2021/11/06 03:28:42;;;;;;;;;;;;;;;20.13;50.73;102525.34;7284829;19;152470;-50
2021/11/06 03:31:09;;;;;;;;;;;;;;;20.12;50.84;102534.91;7286102;19;152916;-50
2021/11/06 03:33:36;;;;;;;;;;;;;;;20.06;51.25;102521.94;7281452;19;152698;-49
2021/11/06 03:36:03;;;;;;;;;;;;;;;20.08;51.02;102522.50;7284687;19;151954;-49
2021/11/06 03:38:30;;;;;;;;;;;;;;;20.08;51.29;102524.47;7281722;19;153744;-49
2021/11/06 03:40:57;;;;;;;;;;;;;;;20.02;51.25;102519.94;7284668;19;153416;-50
2021/11/06 03:43:23;;;;;;;;;;;;;;;20.01;51.21;102523.84;7290913;19;152014;-49
2021/11/06 03:45:50;;;;;;;;;;;;;;;19.97;51.45;102515.13;7280718;19;153942;-49
2021/11/06 03:48:17;;;;;;;;;;;;;;;19.95;51.80;102514.53;7285091;19;152234;-49
2021/11/06 03:50:44;;;;;;;;;;;;;;;19.89;52.04;102522.06;7284780;19;153087;-49
2021/11/06 03:53:11;;;;;;;;;;;;;;;19.89;51.90;102516.47;7283153;19;155283;-49
2021/11/06 03:55:38;;;;;;;;;;;;;;;19.85;51.79;102518.06;7282370;19;152104;-50
2021/11/06 03:58:05;;;;;;;;;;;;;;;19.82;52.16;102524.22;7282211;19;153217;-49
2021/11/06 04:00:31;;;;;;;;;;;;;;;19.78;52.39;102522.22;7282188;19;153454;-49
2021/11/06 04:02:58;;;;;;;;;;;;;;;19.77;52.16;102521.38;7279371;19;152207;-50
2021/11/06 04:05:25;;;;;;;;;;;;;;;19.75;52.01;102529.22;7288414;19;152740;-49
2021/11/06 04:07:55;;;;;;;;;;;;;;;19.75;52.01;102517.16;7283829;19;152000;-50
2021/11/06 04:10:22;;;;;;;;;;;;;;;19.73;52.61;102516.56;7278441;19;152860;-49
2021/11/06 04:12:48;;;;;;;;;;;;;;;19.71;52.49;102519.63;7283374;19;154460;-49
2021/11/06 04:15:15;;;;;;;;;;;;;;;19.71;52.41;102521.59;7281030;19;152049;-49
2021/11/06 04:17:42;;;;;;;;;;;;;;;19.68;52.30;102522.94;7282589;19;152801;-50
2021/11/06 04:20:09;;;;;;;;;;;;;;;19.68;52.46;102516.50;7279773;19;153871;-49
2021/11/06 04:22:36;;;;;;;;;;;;;;;19.65;52.18;102523.50;7282001;19;152066;-50
2021/11/06 04:25:04;;;;;;;;;;;;;;;19.62;52.73;102526.84;7281441;19;153215;-49
2021/11/06 04:27:30;;;;;;;;;;;;;;;19.64;52.37;102520.94;7290139;19;153961;-49
2021/11/06 04:29:57;;;;;;;;;;;;;;;19.62;52.46;102514.78;7283648;19;153523;-50
2021/11/06 04:32:24;;;;;;;;;;;;;;;19.60;52.71;102526.25;7280947;19;154066;-50
2021/11/06 04:34:50;;;;;;;;;;;;;;;19.59;52.51;102523.69;7283022;19;151740;-49
2021/11/06 04:37:17;;;;;;;;;;;;;;;19.57;52.92;102518.38;7283016;19;153213;-50
2021/11/06 04:39:44;;;;;;;;;;;;;;;19.58;52.66;102524.81;7282136;19;152609;-49
2021/11/06 04:42:11;;;;;;;;;;;;;;;19.61;52.87;102522.31;7282224;19;152314;-50
2021/11/06 04:44:37;;;;;;;;;;;;;;;19.56;52.81;102527.03;7280807;19;152935;-50
2021/11/06 04:47:04;;;;;;;;;;;;;;;19.56;52.73;102529.84;7281972;19;154457;-49
2021/11/06 04:49:31;;;;;;;;;;;;;;;19.52;53.10;102523.91;7289336;19;152053;-49
2021/11/06 04:51:58;;;;;;;;;;;;;;;19.52;52.94;102523.91;7280355;19;152833;-49
2021/11/06 04:54:25;;;;;;;;;;;;;;;19.50;53.18;102523.31;7280384;19;151956;-49
2021/11/06 04:56:51;;;;;;;;;;;;;;;19.53;53.06;102517.19;7281616;19;152944;-50
2021/11/06 04:59:18;;;;;;;;;;;;;;;19.57;53.06;102515.56;7279660;19;154337;-50
2021/11/06 05:01:45;;;;;;;;;;;;;;;19.51;52.91;102516.59;7281341;19;152407;-50
2021/11/06 05:04:12;;;;;;;;;;;;;;;19.49;53.40;102516.00;7280954;19;154021;-50
2021/11/06 05:06:39;;;;;;;;;;;;;;;19.48;53.32;102522.75;7281659;19;153472;-50
2021/11/06 05:09:05;;;;;;;;;;;;;;;19.45;53.15;102510.09;7279938;19;151709;-50
2021/11/06 05:11:32;;;;;;;;;;;;;;;19.43;53.46;102515.13;7288397;19;153592;-50
2021/11/06 05:13:59;;;;;;;;;;;;;;;19.46;53.26;102513.75;7283273;19;152083;-50
2021/11/06 05:16:26;;;;;;;;;;;;;;;19.39;53.48;102511.13;7288360;19;152162;-50
2021/11/06 05:18:55;;;;;;;;;;;;;;;19.39;53.39;102508.31;7285422;19;153384;-50
2021/11/06 05:21:22;;;;;;;;;;;;;;;19.39;53.32;102513.06;7288763;19;151818;-50
2021/11/06 05:23:49;;;;;;;;;;;;;;;19.40;53.15;102509.13;7287661;19;152815;-50
2021/11/06 05:26:16;;;;;;;;;;;;;;;19.39;53.93;102505.53;7286469;19;153708;-50
2021/11/06 05:28:43;;;;;;;;;;;;;;;19.43;53.41;102508.63;7286175;19;151517;-50
2021/11/06 05:31:10;;;;;;;;;;;;;;;19.37;53.61;102504.91;7286476;19;153212;-50
2021/11/06 05:33:37;;;;;;;;;;;;;;;19.33;53.87;102500.94;7291622;19;153341;-52
2021/11/06 05:36:04;;;;;;;;;;;;;;;19.30;53.74;102495.03;7286293;19;153197;-50
2021/11/06 05:38:31;;;;;;;;;;;;;;;19.35;53.65;102492.28;7287210;19;153985;-50
2021/11/06 05:40:57;;;;;;;;;;;;;;;19.29;53.98;102491.38;7287139;19;152617;-50
2021/11/06 05:43:24;;;;;;;;;;;;;;;19.28;54.09;102483.22;7288729;19;153404;-50
2021/11/06 05:45:51;;;;;;;;;;;;;;;19.27;54.09;102490.78;7285186;19;153398;-50
2021/11/06 05:48:18;;;;;;;;;;;;;;;19.27;53.84;102485.19;7287302;19;151550;-50
2021/11/06 05:50:45;;;;;;;;;;;;;;;19.24;53.81;102482.06;7288802;19;153291;-50
2021/11/06 05:53:12;;;;;;;;;;;;;;;19.25;54.15;102489.38;7292855;19;155565;-50
2021/11/06 05:55:38;;;;;;;;;;;;;;;19.23;53.74;102475.59;7288093;19;153056;-49
2021/11/06 05:58:05;;;;;;;;;;;;;;;19.21;53.84;102483.44;7286737;19;155459;-50
2021/11/06 06:00:32;;;;;;;;;;;;;;;19.23;54.17;102477.56;7287611;19;151893;-50
2021/11/06 06:02:59;;;;;;;;;;;;;;;19.19;54.14;102477.25;7285052;19;154176;-49
2021/11/06 06:05:26;;;;;;;;;;;;;;;19.18;53.86;102467.13;7283018;19;153555;-50
2021/11/06 06:07:53;;;;;;;;;;;;;;;19.16;54.33;102465.72;7287632;19;151934;-50
2021/11/06 06:10:19;;;;;;;;;;;;;;;19.14;54.12;102479.13;7286998;19;153753;-50
2021/11/06 06:12:50;;;;;;;;;;;;;;;19.13;54.17;102472.69;7286422;19;154227;-50
2021/11/06 06:15:18;;;;;;;;;;;;;;;19.14;54.39;102476.31;7293299;19;151629;-50
2021/11/06 06:17:45;;;;;;;;;;;;;;;19.13;54.52;102475.47;7284521;19;152322;-50
2021/11/06 06:20:11;;;;;;;;;;;;;;;19.12;54.06;102471.00;7287404;19;152340;-50
2021/11/06 06:22:38;;;;;;;;;;;;;;;19.11;54.42;102463.72;7288246;19;152666;-50
2021/11/06 06:25:05;;;;;;;;;;;;;;;19.10;54.37;102464.81;7283834;19;153449;-50
2021/11/06 06:27:32;;;;;;;;;;;;;;;19.07;54.67;102477.41;7285848;19;151741;-50
2021/11/06 06:29:59;;;;;;;;;;;;;;;19.07;54.43;102462.53;7286030;19;152979;-50
2021/11/06 06:32:26;;;;;;;;;;;;;;;19.03;54.55;102453.78;7281862;19;152919;-50
2021/11/06 06:34:53;;;;;;;;;;;;;;;19.06;54.29;102456.09;7286345;19;152859;-50
2021/11/06 06:37:20;;;;;;;;;;;;;;;19.06;54.29;102455.25;7293196;19;151912;-50
2021/11/06 06:39:46;;;;;;;;;;;;;;;19.04;54.40;102457.44;7286277;19;151961;-50
2021/11/06 06:42:13;;;;;;;;;;;;;;;19.05;54.75;102450.75;7287400;19;152813;-50
2021/11/06 06:44:40;;;;;;;;;;;;;;;19.02;54.78;102457.72;7284242;19;153537;-50
2021/11/06 06:47:07;;;;;;;;;;;;;;;19.06;54.71;102461.69;7284449;19;152025;-50
2021/11/06 06:49:33;;;;;;;;;;;;;;;19.01;54.25;102455.16;7283731;19;153806;-50
2021/11/06 06:52:00;;;;;;;;;;;;;;;19.00;54.78;102456.28;7284235;19;154416;-50
2021/11/06 06:54:27;;;;;;;;;;;;;;;18.96;54.33;102467.16;7287496;19;152054;-50
2021/11/06 06:56:54;;;;;;;;;;;;;;;18.95;54.85;102464.59;7287429;19;153094;-50
2021/11/06 06:59:20;;;;;;;;;;;;;;;18.95;54.44;102462.66;7290870;19;153642;-49
2021/11/06 07:01:48;;;;;;;;;;;;;;;18.93;54.64;102461.25;7282240;19;152241;-49
2021/11/06 07:04:15;;;;;;;;;;;;;;;18.90;55.07;102464.53;7283888;19;153492;-50
2021/11/06 07:06:42;;;;;;;;;;;;;;;18.95;54.54;102459.84;7284291;19;151794;-50
2021/11/06 07:09:09;;;;;;;;;;;;;;;18.91;54.79;102469.88;7283614;19;152908;-49
2021/11/06 07:11:36;;;;;;;;;;;;;;;18.94;55.02;102465.75;7284001;19;153565;-49
2021/11/06 07:14:03;;;;;;;;;;;;;;;18.90;54.88;102465.38;7284756;19;151917;-50
2021/11/06 07:16:30;;;;;;;;;;;;;;;18.89;55.14;102471.28;7283474;19;153491;-49
2021/11/06 07:18:56;;;;;;;;;;;;;;;18.94;55.32;102465.75;7284883;19;153489;-51
2021/11/06 07:21:23;;;;;;;;;;;;;;;19.02;55.49;102468.94;7293313;19;151933;-50
2021/11/06 07:23:52;;;;;;;;;;;;;;;19.09;55.56;102472.38;7281583;19;153462;-50
2021/11/06 07:26:19;;;;;;;;;;;;;;;19.10;56.22;102467.59;7281051;19;152619;-50
2021/11/06 07:28:46;;;;;;;;;;;;;;;19.13;56.05;102466.22;7282790;19;152650;-50
2021/11/06 07:31:13;;;;;;;;;;;;;;;19.15;56.16;102466.81;7285108;19;153217;-50
2021/11/06 07:33:39;;;;;;;;;;;;;;;19.17;56.04;102473.03;7285993;19;151842;-50
2021/11/06 07:36:06;;;;;;;;;;;;;;;19.19;56.87;102473.59;7281633;19;153596;-49
2021/11/06 07:38:33;;;;;;;;;;;;;;;19.25;57.11;102486.56;7281916;19;156200;-50
2021/11/06 07:41:00;;;;;;;;;;;;;;;19.29;57.16;102484.94;7283599;19;151865;-49
2021/11/06 07:43:26;;;;;;;;;;;;;;;19.36;57.42;102486.41;7287771;19;153737;-49
2021/11/06 07:45:53;;;;;;;;;;;;;;;19.41;57.34;102480.84;7282956;19;151964;-49
2021/11/06 07:48:20;;;;;;;;;;;;;;;19.45;57.46;102472.78;7284545;19;152788;-50
2021/11/06 07:50:47;;;;;;;;;;;;;;;19.51;56.65;102480.16;7283903;19;154612;-50
2021/11/06 07:53:13;;;;;;;;;;;;;;;19.57;57.02;102487.53;7284329;19;152135;-49
2021/11/06 07:55:40;;;;;;;;;;;;;;;19.65;56.91;102498.25;7282550;19;153397;-49
2021/11/06 07:58:09;;;;;;;;;;;;;;;19.72;56.14;102495.22;7283019;19;152816;-51
2021/11/06 08:00:37;;;;;;;;;;;;;;;19.77;56.10;102495.28;7282751;19;151589;-50
2021/11/06 08:03:03;;;;;;;;;;;;;;;19.82;56.15;102496.19;7286355;19;152458;-52
2021/11/06 08:05:30;;;;;;;;;;;;;;;19.86;56.00;102494.53;7282715;19;151919;-50
2021/11/06 08:07:57;;;;;;;;;;;;;;;19.93;55.50;102495.16;7282820;19;153186;-49
2021/11/06 08:10:24;;;;;;;;;;;;;;;19.99;55.32;102498.84;7283132;19;154505;-50
2021/11/06 08:12:51;;;;;;;;;;;;;;;20.04;55.36;102500.84;7282023;19;152035;-49
2021/11/06 08:15:17;;;;;;;;;;;;;;;20.07;55.82;102487.16;7281933;19;153151;-50
2021/11/06 08:17:44;;;;;;;;;;;;;;;20.14;54.83;102482.16;7283271;19;153447;-49
2021/11/06 08:20:11;;;;;;;;;;;;;;;20.17;54.86;102490.03;7280790;19;152806;-50
2021/11/06 08:22:38;;;;;;;;;;;;;;;20.21;55.04;102485.59;7280299;19;152131;-50
2021/11/06 08:25:06;;;;;;;;;;;;;;;20.21;54.87;102481.94;7287288;19;153890;-50
2021/11/06 08:27:34;;;;;;;;;;;;;;;20.24;54.71;102482.22;7283941;19;153187;-49
2021/11/06 08:30:01;;;;;;;;;;;;;;;20.30;54.52;102484.00;7280381;19;154134;-50
2021/11/06 08:32:27;;;;;;;;;;;;;;;20.31;54.66;102480.06;7282279;19;151977;-49
2021/11/06 08:34:54;;;;;;;;;;;;;;;20.35;54.01;102486.00;7283414;19;153087;-50
2021/11/06 08:37:21;;;;;;;;;;;;;;;20.37;54.25;102469.72;7280399;19;153758;-50
2021/11/06 08:39:48;;;;;;;;;;;;;;;20.38;54.21;102474.22;7281487;19;152015;-50
2021/11/06 08:42:14;;;;;;;;;;;;;;;20.39;54.52;102482.38;7283067;19;152671;-49
2021/11/06 08:44:41;;;;;;;;;;;;;;;20.44;53.84;102489.16;7280658;19;152716;-50
2021/11/06 08:47:08;;;;;;;;;;;;;;;20.46;53.67;102484.09;7293272;19;151653;-50
2021/11/06 08:49:35;;;;;;;;;;;;;;;20.46;53.79;102482.13;7288339;19;154190;-50
2021/11/06 08:52:03;;;;;;;;;;;;;;;20.48;53.90;102476.25;7287896;19;151550;-50
2021/11/06 08:54:30;;;;;;;;;;;;;;;20.47;53.64;102475.41;7288900;19;152077;-50
2021/11/06 08:56:57;;;;;;;;;;;;;;;20.48;53.91;102479.91;7286520;19;153435;-50
2021/11/06 08:59:24;;;;;;;;;;;;;;;20.48;53.66;102468.69;7285972;19;152298;-50
2021/11/06 09:01:53;;;;;;;;;;;;;;;20.49;54.00;102467.53;7286495;19;152845;-50
2021/11/06 09:04:20;;;;;;;;;;;;;;;20.51;53.80;102470.09;7286001;19;152610;-49
2021/11/06 09:06:47;;;;;;;;;;;;;;;20.49;53.63;102466.72;7287676;19;152332;-50
2021/11/06 09:09:14;;;;;;;;;;;;;;;20.49;53.33;102472.34;7293395;19;152153;-50
2021/11/06 09:11:42;;;;;;;;;;;;;;;20.47;53.80;102478.22;7287176;19;151478;-50
2021/11/06 09:14:10;;;;;;;;;;;;;;;20.51;54.05;102478.50;7287454;19;153045;-49
2021/11/06 09:16:37;;;;;;;;;;;;;;;20.53;54.63;102468.72;7285032;19;153297;-50
2021/11/06 09:19:04;;;;;;;;;;;;;;;20.29;51.88;102464.59;7287781;19;152261;-49
2021/11/06 09:21:31;;;;;;;;;;;;;;;20.38;51.66;102471.41;7287465;19;152637;-49
2021/11/06 09:26:36;;;;;;;;;;;;;;;20.41;51.11;102470.88;7284581;19;152396;-50
2021/11/06 09:29:04;;;;;;;;;;;;;;;20.40;50.62;102470.03;7287407;19;151770;-50
2021/11/06 09:31:31;;;;;;;;;;;;;;;20.39;50.82;102467.50;7293056;19;153795;-49
2021/11/06 09:33:58;;;;;;;;;;;;;;;20.38;50.39;102463.84;7286615;19;153115;-50
2021/11/06 09:36:25;;;;;;;;;;;;;;;20.39;50.56;102467.50;7287149;19;153369;-49
2021/11/06 09:38:52;;;;;;;;;;;;;;;20.36;50.24;102468.88;7286819;19;151723;-50
2021/11/06 09:41:20;;;;;;;;;;;;;;;20.35;50.48;102458.75;7288880;19;153585;-50
2021/11/06 09:43:47;;;;;;;;;;;;;;;20.35;49.98;102460.75;7287469;19;153027;-49
2021/11/06 09:46:15;;;;;;;;;;;;;;;20.33;50.28;102468.56;7286811;19;151802;-49
2021/11/06 09:48:43;;;;;;;;;;;;;;;20.31;50.03;102456.75;7284550;19;153230;-50
2021/11/06 09:51:10;;;;;;;;;;;;;;;20.29;49.93;102456.16;7285186;19;153997;-50
2021/11/06 09:53:40;;;;;;;;;;;;;;;20.26;49.83;102459.53;7294631;19;152210;-49
2021/11/06 09:56:09;;;;;;;;;;;;;;;20.23;50.15;102446.00;7284850;19;153469;-50
2021/11/06 09:58:37;;;;;;;;;;;;;;;20.22;50.10;102445.16;7284636;19;151942;-51
2021/11/06 10:01:04;;;;;;;;;;;;;;;20.19;49.85;102454.13;7286571;19;152079;-50
2021/11/06 10:03:30;;;;;;;;;;;;;;;20.18;50.21;102438.41;7283730;19;153839;-50
2021/11/06 10:06:02;;;;;;;;;;;;;;;20.16;49.93;102440.66;7282791;19;152032;-50
2021/11/06 10:08:35;;;;;;;;;;;;;;;20.15;50.10;102440.91;7286359;19;152738;-50
2021/11/06 10:11:05;;;;;;;;;;;;;;;20.13;50.13;102437.50;7286060;19;153986;-51
2021/11/06 10:13:32;;;;;;;;;;;;;;;20.11;50.19;102439.75;7293440;19;151742;-50
2021/11/06 10:15:59;;;;;;;;;;;;;;;20.09;49.97;102436.34;7285303;19;152490;-50
2021/11/06 10:18:27;;;;;;;;;;;;;;;20.09;50.10;102436.34;7287228;19;152127;-50
2021/11/06 10:20:57;;;;;;;;;;;;;;;20.08;50.05;102431.88;7286095;19;152640;-49
2021/11/06 10:23:26;;;;;;;;;;;;;;;20.08;49.97;102429.91;7285964;19;154067;-49
2021/11/06 10:26:13;;;;;;;;;;;;;;;20.09;50.30;102437.22;7283201;19;152912;-50
2021/11/06 10:28:40;;;;;;;;;;;;;;;20.09;50.17;102431.59;7284815;19;153865;-50
2021/11/06 10:31:07;;;;;;;;;;;;;;;20.12;50.29;102438.66;7284157;19;153210;-50
2021/11/06 10:33:41;;;;;;;;;;;;;;;20.16;50.22;102439.78;7281725;19;151868;-50
2021/11/06 10:36:15;;;;;;;;;;;;;;;20.16;50.28;102432.22;7290535;19;153428;-50
2021/11/06 10:38:42;;;;;;;;;;;;;;;20.18;50.57;102437.53;7284617;19;153838;-49
2021/11/06 10:41:09;;;;;;;;;;;;;;;20.21;50.48;102429.47;7286923;19;152375;-49
2021/11/06 10:43:37;;;;;;;;;;;;;;;20.25;50.32;102429.75;7286068;19;153463;-50
2021/11/06 10:46:04;;;;;;;;;;;;;;;20.27;50.27;102421.91;7283490;19;152297;-50
2021/11/06 10:48:33;;;;;;;;;;;;;;;20.31;50.62;102412.69;7285770;19;152983;-49
2021/11/06 10:51:04;;;;;;;;;;;;;;;20.35;50.15;102402.59;7283311;19;154468;-49
2021/11/06 10:53:31;;;;;;;;;;;;;;;20.39;50.10;102394.50;7285546;19;151804;-50
2021/11/06 10:55:59;;;;;;;;;;;;;;;20.42;50.01;102391.16;7285859;19;152361;-50
2021/11/06 10:58:27;;;;;;;;;;;;;;;20.46;49.98;102391.44;7290805;19;153263;-49
2021/11/06 11:00:55;;;;;;;;;;;;;;;20.49;50.25;102400.16;7285361;19;153230;-50
2021/11/06 11:03:30;;;;;;;;;;;;;;;20.53;49.96;102392.06;7280061;19;153307;-50
2021/11/06 11:05:57;;;;;;;;;;;;;;;20.56;49.87;102397.97;7284737;19;152104;-50
2021/11/06 11:08:24;;;;;;;;;;;;;;;20.61;49.71;102386.75;7282126;19;154870;-50
2021/11/06 11:10:51;;;;;;;;;;;;;;;20.64;50.03;102374.13;7286224;19;154080;-49
2021/11/06 11:13:19;;;;;;;;;;;;;;;20.68;49.91;102367.69;7285820;19;152354;-50
2021/11/06 11:15:48;;;;;;;;;;;;;;;20.72;49.59;102363.19;7282676;19;152773;-49
2021/11/06 11:18:28;;;;;;;;;;;;;;;20.76;49.55;102346.63;7281471;19;153265;-50
2021/11/06 11:21:06;;;;;;;;;;;;;;;20.78;49.82;102344.41;7290714;19;153848;-50
2021/11/06 11:23:32;;;;;;;;;;;;;;;20.82;49.21;102335.16;7281256;19;152273;-50
2021/11/06 11:25:59;;;;;;;;;;;;;;;20.85;49.40;102326.16;7283191;19;152310;-49
2021/11/06 11:28:27;;;;;;;;;;;;;;;20.90;49.29;102332.91;7283160;19;152752;-50
2021/11/06 11:30:54;;;;;;;;;;;;;;;20.95;49.17;102324.50;7280896;19;153271;-50
2021/11/06 11:33:38;;;;;;;;;;;;;;;20.97;49.35;102317.50;7282973;19;152276;-50
2021/11/06 11:36:06;;;;;;;;;;;;;;;21.03;49.13;102301.50;7281475;19;151759;-50
2021/11/06 11:38:33;;;;;;;;;;;;;;;21.07;49.42;102289.41;7280982;19;153525;-49
2021/11/06 11:41:03;;;;;;;;;;;;;;;21.10;48.98;102282.38;7284610;19;152495;-50
2021/11/06 11:43:34;;;;;;;;;;;;;;;21.13;49.09;102279.03;7290225;19;152235;-49
2021/11/06 11:46:06;;;;;;;;;;;;;;;21.17;49.23;102268.91;7279282;19;152715;-50
2021/11/06 11:48:33;;;;;;;;;;;;;;;21.20;48.79;102255.16;7283187;19;153565;-49
2021/11/06 11:51:01;;;;;;;;;;;;;;;21.23;49.11;102251.78;7281620;19;154554;-50
2021/11/06 11:53:31;;;;;;;;;;;;;;;21.26;48.82;102248.38;7283394;19;151920;-49
2021/11/06 11:56:05;;;;;;;;;;;;;;;21.27;48.82;102240.78;7255880;19;155421;-50
2021/11/06 11:58:35;;;;;;;;;;;;;;;21.28;48.58;102246.16;7280851;19;154175;-50
2021/11/06 12:01:02;;;;;;;;;;;;;;;21.30;48.42;102246.69;7274181;19;152579;-49
2021/11/06 12:03:33;;;;;;;;;;;;;;;21.32;48.26;102245.56;7281396;19;152794;-49
2021/11/06 12:06:01;;;;;;;;;;;;;;;21.33;48.71;102248.13;7285869;19;152398;-49
2021/11/06 12:08:29;;;;;;;;;;;;;;;21.32;48.60;102249.22;7279306;19;153596;-50
2021/11/06 12:10:59;;;;;;;;;;;;;;;21.32;48.37;102245.56;7279739;19;152604;-49
2021/11/06 12:13:33;;;;;;;;;;;;;;;21.29;47.98;102228.16;7281539;19;151710;-50
2021/11/06 12:16:01;;;;;;;;;;;;;;;21.30;47.64;102221.38;7276162;19;152698;-50
2021/11/06 12:18:31;;;;;;;;;;;;;;;21.30;47.94;102226.19;7282634;19;153520;-50
2021/11/06 12:21:01;;;;;;;;;;;;;;;21.32;47.94;102223.94;7283796;19;152190;-50
2021/11/06 12:23:30;;;;;;;;;;;;;;;21.30;47.70;102217.75;7292763;19;152591;-49
2021/11/06 12:26:10;;;;;;;;;;;;;;;21.32;47.50;102201.44;7300679;19;153975;-50
2021/11/06 12:28:37;;;;;;;;;;;;;;;21.33;47.87;102221.97;7294047;19;153391;-50
2021/11/06 12:31:07;;;;;;;;;;;;;;;21.30;47.65;102214.97;7294993;19;154460;-49